createdAt,value
2018-09-10T00:00:23.148Z,8.40
2018-09-10T00:02:51.928Z,8.40
2018-09-10T00:05:20.596Z,8.50
2018-09-10T00:07:49.054Z,8.40
2018-09-10T00:10:17.495Z,8.40
2018-09-10T00:12:45.912Z,8.30
2018-09-10T00:15:14.327Z,8.40
2018-09-10T00:17:43.036Z,8.30
2018-09-10T00:20:11.721Z,8.40
2018-09-10T00:22:40.229Z,8.30
2018-09-10T00:25:09.027Z,8.30
2018-09-10T00:27:38.199Z,8.20
2018-09-10T00:30:06.716Z,8.10
2018-09-10T00:32:35.142Z,8.10
2018-09-10T00:35:03.584Z,8.10
2018-09-10T00:37:32.085Z,8.10
2018-09-10T00:40:00.559Z,8.10
2018-09-10T00:42:28.988Z,8.10
2018-09-10T00:44:57.519Z,8.10
2018-09-10T00:47:26.037Z,8.10
2018-09-10T00:49:54.447Z,8.00
2018-09-10T00:52:22.916Z,8.00
2018-09-10T00:54:51.327Z,7.90
2018-09-10T00:57:19.767Z,7.80
2018-09-10T00:59:48.195Z,7.90
2018-09-10T01:02:16.695Z,7.90
2018-09-10T01:04:45.311Z,7.90
2018-09-10T01:07:13.933Z,7.80
2018-09-10T01:09:42.420Z,7.80
2018-09-10T01:12:10.861Z,7.80
2018-09-10T01:14:39.279Z,7.90
2018-09-10T01:17:07.737Z,7.90
2018-09-10T01:19:36.268Z,7.80
2018-09-10T01:22:04.760Z,7.80
2018-09-10T01:24:33.288Z,7.70
2018-09-10T01:27:01.713Z,7.70
2018-09-10T01:29:30.189Z,7.70
2018-09-10T01:31:58.595Z,7.70
2018-09-10T01:34:32.331Z,7.60
2018-09-10T01:37:00.757Z,7.60
2018-09-10T01:39:29.241Z,7.50
2018-09-10T01:41:57.780Z,7.60
2018-09-10T01:44:26.302Z,7.60
2018-09-10T01:46:54.778Z,7.50
2018-09-10T01:49:23.220Z,7.50
2018-09-10T01:51:51.752Z,7.50
2018-09-10T01:54:20.192Z,7.50
2018-09-10T01:56:49.355Z,7.40
2018-09-10T01:59:17.800Z,7.30
2018-09-10T02:01:46.278Z,7.30
2018-09-10T02:04:14.860Z,7.30
2018-09-10T02:06:43.400Z,7.30
2018-09-10T02:09:11.879Z,7.30
2018-09-10T02:11:40.288Z,7.30
2018-09-10T02:14:08.872Z,7.30
2018-09-10T02:16:37.309Z,7.20
2018-09-10T02:19:06.212Z,7.20
2018-09-10T02:21:34.625Z,7.20
2018-09-10T02:24:03.080Z,7.20
2018-09-10T02:26:31.605Z,7.10
2018-09-10T02:29:00.115Z,7.10
2018-09-10T02:31:28.541Z,7.10
2018-09-10T02:33:57.021Z,7.10
2018-09-10T02:36:25.431Z,7.10
2018-09-10T02:38:53.948Z,7.00
2018-09-10T02:41:22.388Z,7.00
2018-09-10T02:43:50.931Z,6.90
2018-09-10T02:46:19.506Z,6.90
2018-09-10T02:48:48.341Z,6.90
2018-09-10T02:51:16.848Z,7.00
2018-09-10T02:53:45.313Z,7.00
2018-09-10T02:56:13.764Z,7.00
2018-09-10T02:58:42.187Z,6.90
2018-09-10T03:01:10.629Z,6.90
2018-09-10T03:03:39.045Z,6.90
2018-09-10T03:06:07.638Z,6.90
2018-09-10T03:08:36.144Z,6.90
2018-09-10T03:11:04.593Z,6.80
2018-09-10T03:13:33.009Z,6.80
2018-09-10T03:16:02.530Z,6.70
2018-09-10T03:18:31.016Z,6.80
2018-09-10T03:20:59.489Z,6.80
2018-09-10T03:23:27.963Z,6.70
2018-09-10T03:25:56.720Z,6.70
2018-09-10T03:28:25.173Z,6.70
2018-09-10T03:30:53.700Z,6.70
2018-09-10T03:33:22.202Z,6.70
2018-09-10T03:35:50.609Z,6.70
2018-09-10T03:38:19.081Z,6.70
2018-09-10T03:40:47.668Z,6.70
2018-09-10T03:43:16.124Z,6.70
2018-09-10T03:45:44.692Z,6.70
2018-09-10T03:48:13.212Z,6.70
2018-09-10T03:50:41.646Z,6.70
2018-09-10T03:53:10.107Z,6.70
2018-09-10T03:55:38.661Z,6.70
2018-09-10T03:58:07.173Z,6.60
2018-09-10T04:00:35.635Z,6.60
2018-09-10T04:03:04.115Z,6.60
2018-09-10T04:05:32.656Z,6.60
2018-09-10T04:08:01.365Z,6.60
2018-09-10T04:10:29.806Z,6.50
2018-09-10T04:12:58.298Z,6.40
2018-09-10T04:15:26.939Z,6.50
2018-09-10T04:17:55.412Z,6.50
2018-09-10T04:20:24.016Z,6.50
2018-09-10T04:22:52.476Z,6.60
2018-09-10T04:25:20.988Z,6.60
2018-09-10T04:27:49.439Z,6.50
2018-09-10T04:30:18.029Z,6.50
2018-09-10T04:32:46.493Z,6.50
2018-09-10T04:35:14.951Z,6.40
2018-09-10T04:37:43.436Z,6.40
2018-09-10T04:40:11.908Z,6.40
2018-09-10T04:42:40.965Z,6.30
2018-09-10T04:45:09.434Z,6.30
2018-09-10T04:47:37.872Z,6.30
2018-09-10T04:50:06.729Z,6.30
2018-09-10T04:52:35.193Z,6.30
2018-09-10T04:55:03.692Z,6.40
2018-09-10T04:57:32.896Z,6.40
2018-09-10T05:00:01.558Z,6.30
2018-09-10T05:02:30.113Z,6.30
2018-09-10T05:04:58.643Z,6.40
2018-09-10T05:07:27.117Z,6.40
2018-09-10T05:09:55.645Z,6.40
2018-09-10T05:12:24.038Z,6.40
2018-09-10T05:14:52.513Z,6.40
2018-09-10T05:17:20.977Z,6.40
2018-09-10T05:19:49.504Z,6.40
2018-09-10T05:22:18.056Z,6.50
2018-09-10T05:24:46.522Z,6.50
2018-09-10T05:27:15.032Z,6.50
2018-09-10T05:29:43.515Z,6.50
2018-09-10T05:32:12.101Z,6.50
2018-09-10T05:34:40.631Z,6.50
2018-09-10T05:37:09.104Z,6.60
2018-09-10T05:44:38.611Z,6.70
2018-09-10T05:47:07.093Z,6.80
2018-09-10T05:49:35.636Z,6.80
2018-09-10T05:52:04.105Z,6.90
2018-09-10T05:54:32.521Z,6.90
2018-09-10T05:57:01.048Z,7.00
2018-09-10T05:59:29.542Z,7.00
2018-09-10T06:01:58.013Z,7.10
2018-09-10T06:04:27.543Z,7.10
2018-09-10T06:06:56.099Z,7.20
2018-09-10T06:09:24.525Z,7.30
2018-09-10T06:11:53.020Z,7.40
2018-09-10T06:14:21.431Z,7.50
2018-09-10T06:16:49.886Z,7.70
2018-09-10T06:19:18.324Z,7.70
2018-09-10T06:21:46.803Z,7.80
2018-09-10T06:24:15.254Z,8.00
2018-09-10T06:26:43.744Z,8.10
2018-09-10T06:29:12.267Z,8.20
2018-09-10T06:31:40.785Z,8.30
2018-09-10T06:34:09.382Z,8.40
2018-09-10T06:36:37.786Z,8.70
2018-09-10T06:39:08.928Z,8.90
2018-09-10T06:41:37.539Z,9.10
2018-09-10T06:44:06.292Z,9.40
2018-09-10T06:46:34.765Z,9.70
2018-09-10T06:49:03.265Z,10.00
2018-09-10T06:51:31.764Z,10.20
2018-09-10T06:54:00.197Z,10.60
2018-09-10T06:56:28.676Z,11.00
2018-09-10T06:58:57.131Z,11.30
2018-09-10T07:01:25.628Z,11.80
2018-09-10T07:03:54.066Z,12.10
2018-09-10T07:06:22.668Z,12.40
2018-09-10T07:08:51.109Z,12.70
2018-09-10T07:11:19.557Z,13.10
2018-09-10T07:13:48.044Z,13.40
2018-09-10T07:16:17.047Z,13.80
2018-09-10T07:18:45.596Z,14.20
2018-09-10T07:21:14.048Z,14.60
2018-09-10T07:23:42.496Z,14.80
2018-09-10T07:26:11.099Z,15.10
2018-09-10T07:28:39.500Z,15.30
2018-09-10T07:31:08.002Z,15.40
2018-09-10T07:33:36.406Z,15.70
2018-09-10T07:36:05.057Z,16.00
2018-09-10T07:38:33.483Z,16.30
2018-09-10T07:41:01.978Z,16.60
2018-09-10T07:43:30.418Z,16.90
2018-09-10T07:45:59.059Z,17.00
2018-09-10T07:48:27.516Z,17.10
2018-09-10T07:50:55.977Z,17.20
2018-09-10T07:53:24.488Z,17.50
2018-09-10T07:55:53.028Z,17.90
2018-09-10T07:58:21.515Z,17.90
2018-09-10T08:00:50.029Z,18.20
2018-09-10T08:03:18.474Z,18.30
2018-09-10T08:05:46.961Z,18.50
2018-09-10T08:08:15.456Z,18.60
2018-09-10T08:10:43.889Z,18.60
2018-09-10T08:13:12.515Z,18.60
2018-09-10T08:15:40.962Z,18.70
2018-09-10T08:18:09.471Z,18.80
2018-09-10T08:20:37.966Z,19.00
2018-09-10T08:23:06.677Z,19.30
2018-09-10T08:25:35.148Z,19.50
2018-09-10T08:28:03.660Z,19.70
2018-09-10T08:30:32.242Z,20.00
2018-09-10T08:33:00.688Z,20.30
2018-09-10T08:35:29.274Z,20.50
2018-09-10T08:37:57.700Z,20.70
2018-09-10T08:40:26.164Z,21.10
2018-09-10T08:42:54.674Z,21.60
2018-09-10T08:45:23.073Z,22.00
2018-09-10T08:47:51.505Z,22.40
2018-09-10T08:50:20.006Z,22.60
2018-09-10T08:52:48.773Z,23.00
2018-09-10T08:55:17.537Z,23.20
2018-09-10T08:57:45.928Z,23.50
2018-09-10T09:00:14.415Z,23.90
2018-09-10T09:02:43.583Z,24.10
2018-09-10T09:05:12.159Z,24.20
2018-09-10T09:07:40.548Z,24.50
2018-09-10T09:10:09.073Z,24.90
2018-09-10T09:12:37.510Z,25.10
2018-09-10T09:15:06.057Z,25.00
2018-09-10T09:17:34.767Z,25.20
2018-09-10T09:20:03.236Z,25.20
2018-09-10T09:22:31.710Z,25.50
2018-09-10T09:25:00.177Z,25.20
2018-09-10T09:27:28.712Z,25.40
2018-09-10T09:29:57.274Z,25.50
2018-09-10T09:32:26.035Z,25.50
2018-09-10T09:34:55.935Z,25.80
2018-09-10T09:37:30.264Z,26.10
2018-09-10T09:40:03.979Z,25.70
2018-09-10T09:42:37.780Z,26.00
2018-09-10T09:45:11.857Z,26.20
2018-09-10T09:47:40.374Z,26.70
2018-09-10T09:50:08.812Z,26.60
2018-09-10T09:52:37.321Z,26.40
2018-09-10T09:55:06.209Z,26.70
2018-09-10T09:57:34.698Z,26.80
2018-09-10T10:00:03.428Z,27.10
2018-09-10T10:03:35.777Z,27.30
2018-09-10T10:06:04.347Z,27.40
2018-09-10T10:08:33.059Z,27.40
2018-09-10T10:11:01.592Z,27.80
2018-09-10T10:13:30.121Z,27.70
2018-09-10T10:15:58.548Z,28.00
2018-09-10T10:18:27.065Z,28.20
2018-09-10T10:20:55.512Z,28.20
2018-09-10T10:23:23.945Z,28.20
2018-09-10T10:25:52.404Z,28.40
2018-09-10T10:28:21.016Z,28.50
2018-09-10T10:30:49.556Z,28.20
2018-09-10T10:33:17.998Z,28.30
2018-09-10T10:35:46.488Z,28.50
2018-09-10T10:38:15.017Z,27.70
2018-09-10T10:40:43.556Z,27.20
2018-09-10T10:43:12.050Z,27.20
2018-09-10T10:45:40.518Z,27.30
2018-09-10T10:48:08.988Z,27.60
2018-09-10T10:50:37.747Z,27.50
2018-09-10T10:53:06.399Z,27.60
2018-09-10T10:55:34.916Z,27.60
2018-09-10T10:58:03.979Z,27.60
2018-09-10T11:00:32.421Z,28.00
2018-09-10T11:03:00.987Z,27.90
2018-09-10T11:05:29.535Z,27.60
2018-09-10T11:07:58.489Z,27.10
2018-09-10T11:10:26.955Z,26.70
2018-09-10T11:12:55.510Z,26.70
2018-09-10T11:15:23.956Z,26.70
2018-09-10T11:17:52.403Z,27.30
2018-09-10T11:20:21.169Z,27.40
2018-09-10T11:22:49.844Z,27.60
2018-09-10T11:25:18.376Z,27.80
2018-09-10T11:27:46.942Z,27.80
2018-09-10T11:30:15.608Z,28.00
2018-09-10T11:32:44.106Z,27.80
2018-09-10T11:35:12.572Z,28.20
2018-09-10T11:37:41.068Z,27.80
2018-09-10T11:40:09.548Z,27.50
2018-09-10T11:42:38.113Z,27.50
2018-09-10T11:45:06.688Z,27.90
2018-09-10T11:47:35.585Z,27.80
2018-09-10T11:50:04.112Z,27.50
2018-09-10T11:52:32.600Z,27.60
2018-09-10T11:55:01.069Z,27.30
2018-09-10T11:57:29.479Z,27.20
2018-09-10T11:59:58.655Z,26.90
2018-09-10T12:02:27.088Z,26.60
2018-09-10T12:04:55.560Z,26.50
2018-09-10T12:07:24.676Z,26.60
2018-09-10T12:09:53.122Z,26.70
2018-09-10T12:12:21.629Z,26.70
2018-09-10T12:14:50.129Z,27.00
2018-09-10T12:17:18.554Z,27.00
2018-09-10T12:19:47.029Z,26.80
2018-09-10T12:22:15.641Z,26.70
2018-09-10T12:24:44.170Z,26.70
2018-09-10T12:27:12.616Z,26.90
2018-09-10T12:29:41.136Z,26.80
2018-09-10T12:32:09.573Z,26.90
2018-09-10T12:34:37.992Z,27.20
2018-09-10T12:37:06.459Z,27.30
2018-09-10T12:39:35.016Z,27.00
2018-09-10T12:42:03.866Z,27.30
2018-09-10T12:44:32.439Z,27.70
2018-09-10T12:47:00.913Z,27.90
2018-09-10T12:49:29.337Z,27.50
2018-09-10T12:51:57.832Z,27.50
2018-09-10T12:54:26.289Z,27.50
2018-09-10T12:56:54.815Z,27.70
2018-09-10T12:59:24.288Z,27.40
2018-09-10T13:01:53.387Z,27.70
2018-09-10T13:04:22.044Z,27.90
2018-09-10T13:06:50.460Z,28.20
2018-09-10T13:09:18.965Z,28.40
2018-09-10T13:11:47.593Z,28.00
2018-09-10T13:14:16.104Z,28.40
2018-09-10T13:16:44.599Z,28.50
2018-09-10T13:19:13.090Z,27.90
2018-09-10T13:21:41.720Z,28.30
2018-09-10T13:24:10.234Z,28.50
2018-09-10T13:26:38.796Z,28.50
2018-09-10T13:29:07.260Z,28.10
2018-09-10T13:31:35.749Z,27.80
2018-09-10T13:34:04.264Z,28.10
2018-09-10T13:36:32.754Z,28.30
2018-09-10T13:39:01.173Z,28.20
2018-09-10T13:41:29.792Z,28.30
2018-09-10T13:43:58.276Z,28.30
2018-09-10T13:46:26.818Z,28.30
2018-09-10T13:48:55.363Z,28.10
2018-09-10T13:51:23.984Z,28.10
2018-09-10T13:53:52.561Z,28.00
2018-09-10T13:56:21.216Z,28.00
2018-09-10T13:58:49.814Z,27.80
2018-09-10T14:01:18.253Z,27.70
2018-09-10T14:03:46.729Z,28.00
2018-09-10T14:06:15.434Z,28.00
2018-09-10T14:08:43.872Z,27.70
2018-09-10T14:11:12.540Z,27.50
2018-09-10T14:13:41.004Z,27.60
2018-09-10T14:16:09.481Z,27.70
2018-09-10T14:18:37.942Z,27.40
2018-09-10T14:21:06.475Z,27.20
2018-09-10T14:23:35.573Z,27.10
2018-09-10T14:26:04.334Z,27.10
2018-09-10T14:28:33.125Z,27.20
2018-09-10T14:31:01.621Z,27.00
2018-09-10T14:33:30.653Z,27.00
2018-09-10T14:35:59.980Z,26.90
2018-09-10T14:38:28.444Z,26.80
2018-09-10T14:40:57.017Z,26.80
2018-09-10T14:43:25.501Z,26.50
2018-09-10T14:45:54.504Z,26.70
2018-09-10T14:48:23.557Z,26.60
2018-09-10T14:50:52.044Z,26.60
2018-09-10T14:53:20.508Z,26.50
2018-09-10T14:55:49.096Z,26.30
2018-09-10T14:58:17.761Z,26.10
2018-09-10T15:00:46.198Z,25.90
2018-09-10T15:03:14.658Z,25.70
2018-09-10T15:05:43.168Z,25.80
2018-09-10T15:08:11.720Z,25.80
2018-09-10T15:10:40.234Z,25.70
2018-09-10T15:13:08.676Z,25.80
2018-09-10T15:15:37.253Z,25.70
2018-09-10T15:18:05.731Z,25.80
2018-09-10T15:20:34.253Z,25.70
2018-09-10T15:23:02.800Z,25.60
2018-09-10T15:25:31.318Z,25.60
2018-09-10T15:27:59.741Z,25.40
2018-09-10T15:30:28.243Z,25.40
2018-09-10T15:32:56.719Z,25.30
2018-09-10T15:35:25.161Z,25.10
2018-09-10T15:37:53.649Z,25.00
2018-09-10T15:40:22.066Z,24.80
2018-09-10T15:42:50.546Z,24.70
2018-09-10T15:45:19.028Z,24.70
2018-09-10T15:47:47.445Z,24.50
2018-09-10T15:50:15.958Z,24.50
2018-09-10T15:52:45.745Z,24.60
2018-09-10T15:55:15.221Z,24.50
2018-09-10T15:57:43.731Z,24.40
2018-09-10T16:00:12.237Z,24.40
2018-09-10T16:02:40.692Z,24.30
2018-09-10T16:05:09.259Z,24.30
2018-09-10T16:07:37.952Z,24.20
2018-09-10T16:10:06.688Z,24.10
2018-09-10T16:12:35.171Z,23.90
2018-09-10T16:15:03.759Z,23.70
2018-09-10T16:17:32.316Z,23.60
2018-09-10T16:20:00.937Z,23.60
2018-09-10T16:22:29.371Z,23.50
2018-09-10T16:24:57.849Z,23.50
2018-09-10T16:27:26.449Z,23.40
2018-09-10T16:29:55.062Z,23.40
2018-09-10T16:32:23.599Z,23.30
2018-09-10T16:34:52.061Z,23.20
2018-09-10T16:37:20.737Z,23.10
2018-09-10T16:39:49.258Z,22.90
2018-09-10T16:42:17.772Z,22.70
2018-09-10T16:44:46.350Z,22.60
2018-09-10T16:47:14.852Z,22.50
2018-09-10T16:49:44.098Z,22.50
2018-09-10T16:52:12.796Z,22.20
2018-09-10T16:54:41.420Z,22.20
2018-09-10T16:57:09.875Z,22.00
2018-09-10T16:59:38.919Z,21.90
2018-09-10T17:02:07.817Z,21.90
2018-09-10T17:04:36.771Z,21.80
2018-09-10T17:07:05.321Z,21.70
2018-09-10T17:09:33.844Z,21.50
2018-09-10T17:12:02.422Z,21.40
2018-09-10T17:14:31.543Z,21.30
2018-09-10T17:17:00.028Z,21.10
2018-09-10T17:19:28.479Z,21.00
2018-09-10T17:21:57.012Z,20.70
2018-09-10T17:24:25.484Z,20.60
2018-09-10T17:26:54.070Z,20.40
2018-09-10T17:29:22.522Z,20.30
2018-09-10T17:31:51.073Z,20.20
2018-09-10T17:34:19.728Z,20.10
2018-09-10T17:36:48.215Z,19.90
2018-09-10T17:39:16.720Z,19.80
2018-09-10T17:41:45.179Z,19.70
2018-09-10T17:44:13.998Z,19.40
2018-09-10T17:46:42.523Z,19.20
2018-09-10T17:49:10.948Z,19.30
2018-09-10T17:51:39.445Z,19.00
2018-09-10T17:54:07.917Z,18.80
2018-09-10T17:56:36.698Z,18.80
2018-09-10T17:59:05.213Z,18.60
2018-09-10T18:01:33.717Z,18.60
2018-09-10T18:04:02.226Z,18.60
2018-09-10T18:06:30.748Z,18.50
2018-09-10T18:08:59.284Z,18.40
2018-09-10T18:11:27.834Z,18.30
2018-09-10T18:13:56.457Z,18.20
2018-09-10T18:16:25.086Z,18.10
2018-09-10T18:18:53.577Z,17.90
2018-09-10T18:21:22.778Z,17.80
2018-09-10T18:23:51.322Z,17.70
2018-09-10T18:26:19.892Z,17.70
2018-09-10T18:28:48.344Z,17.60
2018-09-10T18:31:16.847Z,17.50
2018-09-10T18:33:45.607Z,17.40
2018-09-10T18:36:14.182Z,17.30
2018-09-10T18:38:43.226Z,17.20
2018-09-10T18:41:11.859Z,17.20
2018-09-10T18:43:40.849Z,17.20
2018-09-10T18:46:09.517Z,17.10
2018-09-10T18:48:38.113Z,17.00
2018-09-10T18:51:06.999Z,16.90
2018-09-10T18:53:36.096Z,16.80
2018-09-10T18:56:04.606Z,16.70
2018-09-10T18:58:33.276Z,16.70
2018-09-10T19:01:02.154Z,16.60
2018-09-10T19:03:30.870Z,16.50
2018-09-10T19:05:59.897Z,16.40
2018-09-10T19:08:28.452Z,16.30
2018-09-10T19:10:57.011Z,16.30
2018-09-10T19:13:25.610Z,16.20
2018-09-10T19:15:54.075Z,16.10
2018-09-10T19:18:26.799Z,16.10
2018-09-10T19:20:55.395Z,16.00
2018-09-10T19:23:23.895Z,15.70
2018-09-10T19:25:52.379Z,15.60
2018-09-10T19:28:20.841Z,15.50
2018-09-10T19:30:49.292Z,15.40
2018-09-10T19:33:18.514Z,15.40
2018-09-10T19:35:46.981Z,15.30
2018-09-10T19:38:15.440Z,15.30
2018-09-10T19:40:43.978Z,15.30
2018-09-10T19:43:12.536Z,15.10
2018-09-10T19:45:41.110Z,15.10
2018-09-10T19:48:09.730Z,15.00
2018-09-10T19:50:38.373Z,14.90
2018-09-10T19:53:07.848Z,14.80
2018-09-10T19:55:36.352Z,14.60
2018-09-10T19:58:04.871Z,14.60
2018-09-10T20:00:33.369Z,14.50
2018-09-10T20:03:02.176Z,14.60
2018-09-10T20:05:30.779Z,14.50
2018-09-10T20:07:59.561Z,14.50
2018-09-10T20:10:28.065Z,14.50
2018-09-10T20:12:56.530Z,14.40
2018-09-10T20:15:25.064Z,14.30
2018-09-10T20:17:53.572Z,14.20
2018-09-10T20:20:22.053Z,14.10
2018-09-10T20:22:50.656Z,14.00
2018-09-10T20:25:19.278Z,13.90
2018-09-10T20:27:47.708Z,13.80
2018-09-10T20:30:16.208Z,13.60
2018-09-10T20:32:44.666Z,13.70
2018-09-10T20:35:13.707Z,13.70
2018-09-10T20:37:42.133Z,13.60
2018-09-10T20:40:10.608Z,13.50
2018-09-10T20:42:39.118Z,13.50
2018-09-10T20:45:07.754Z,13.40
2018-09-10T20:47:36.200Z,13.20
2018-09-10T20:50:04.821Z,13.20
2018-09-10T20:52:33.329Z,13.10
2018-09-10T20:55:01.956Z,13.20
2018-09-10T20:57:30.585Z,13.20
2018-09-10T20:59:59.053Z,13.00
2018-09-10T21:02:27.596Z,13.00
2018-09-10T21:04:56.096Z,12.90
2018-09-10T21:07:24.634Z,12.90
2018-09-10T21:09:53.045Z,12.90
2018-09-10T21:12:21.554Z,12.80
2018-09-10T21:14:49.974Z,12.80
2018-09-10T21:17:18.424Z,12.80
2018-09-10T21:19:46.915Z,12.60
2018-09-10T21:22:15.424Z,12.60
2018-09-10T21:24:44.021Z,12.60
2018-09-10T21:27:12.509Z,12.60
2018-09-10T21:29:40.969Z,12.50
2018-09-10T21:32:09.719Z,12.40
2018-09-10T21:34:38.146Z,12.30
2018-09-10T21:37:07.946Z,12.40
2018-09-10T21:39:36.430Z,12.40
2018-09-10T21:42:04.858Z,12.40
2018-09-10T21:44:33.296Z,12.40
2018-09-10T21:47:01.759Z,12.30
2018-09-10T21:49:30.229Z,12.30
2018-09-10T21:51:58.867Z,12.30
2018-09-10T21:54:27.312Z,12.30
2018-09-10T21:56:55.950Z,12.20
2018-09-10T21:59:24.403Z,12.20
2018-09-10T22:01:52.832Z,12.20
2018-09-10T22:04:21.267Z,12.10
2018-09-10T22:06:49.717Z,12.10
2018-09-10T22:09:18.288Z,12.00
2018-09-10T22:11:52.068Z,12.00
2018-09-10T22:14:20.550Z,11.90
2018-09-10T22:16:49.060Z,11.90
2018-09-10T22:19:17.538Z,11.90
2018-09-10T22:21:46.758Z,11.80
2018-09-10T22:24:15.185Z,11.80
2018-09-10T22:26:43.628Z,11.80
2018-09-10T22:29:12.060Z,11.70
2018-09-10T22:31:40.622Z,11.60
2018-09-10T22:34:09.168Z,11.60
2018-09-10T22:36:37.728Z,11.60
2018-09-10T22:39:09.373Z,11.60
2018-09-10T22:41:37.903Z,11.50
2018-09-10T22:44:06.642Z,11.50
2018-09-10T22:46:35.667Z,11.50
2018-09-10T22:49:04.486Z,11.40
2018-09-10T22:51:33.076Z,11.30
2018-09-10T22:54:01.654Z,11.30
2018-09-10T22:56:30.228Z,11.30
2018-09-10T22:58:58.752Z,11.30
2018-09-10T23:01:27.269Z,11.20
2018-09-10T23:03:55.791Z,11.20
2018-09-10T23:06:24.241Z,11.10
2018-09-10T23:08:52.693Z,11.10
2018-09-10T23:11:21.148Z,11.10
2018-09-10T23:13:49.600Z,11.10
2018-09-10T23:16:18.040Z,11.10
2018-09-10T23:18:46.486Z,11.10
2018-09-10T23:21:14.958Z,11.10
2018-09-10T23:23:43.398Z,11.10
2018-09-10T23:26:11.898Z,11.10
2018-09-10T23:28:40.413Z,11.00
2018-09-10T23:31:08.931Z,10.90
2018-09-10T23:33:37.424Z,10.90
2018-09-10T23:36:05.963Z,10.80
2018-09-10T23:38:34.408Z,10.90
2018-09-10T23:41:03.012Z,10.90
2018-09-10T23:43:31.480Z,10.80
2018-09-10T23:46:00.478Z,10.80
2018-09-10T23:48:29.152Z,10.80
2018-09-10T23:50:57.661Z,10.80
2018-09-10T23:53:26.100Z,10.80
2018-09-10T23:55:54.938Z,10.80
2018-09-10T23:58:23.408Z,10.80
